Time;durP1;ratioP1;P1;durP2;ratioP2;P2;SDS_P1;SDS_P2;PMS_P1;PMS_P2;Temp;Humidity;BMP_temperature;BMP_pressure;BME280_temperature;BME280_humidity;BME280_pressure;Samples;Min_cycle;Max_cycle;Signal;HPM_P1;HPM_P2
2021/03/09 14:11:31;;;;;;;20.90;16.92;;;;;;;;;;5069170;28;20375;-84
2021/03/09 14:13:58;;;;;;;18.45;14.52;;;;;;;;;;5052136;28;20468;-81
2021/03/09 14:16:24;;;;;;;19.42;14.48;;;;;;;;;;5051675;28;20060;-79
2021/03/09 14:18:50;;;;;;;18.38;13.23;;;;;;;;;;5058172;28;20075;-81
2021/03/09 14:21:16;;;;;;;15.40;12.13;;;;;;;;;;5049104;28;20029;-80
2021/03/09 14:23:42;;;;;;;19.75;14.45;;;;;;;;;;5049424;28;20052;-79
2021/03/09 14:26:09;;;;;;;16.10;13.38;;;;;;;;;;5047559;28;20033;-83
2021/03/09 14:28:35;;;;;;;22.02;16.05;;;;;;;;;;5049187;28;20055;-81
2021/03/09 14:31:01;;;;;;;22.90;15.52;;;;;;;;;;5048882;28;20103;-80
2021/03/09 14:33:27;;;;;;;25.55;14.85;;;;;;;;;;5049299;28;20108;-80
2021/03/09 14:35:53;;;;;;;21.70;14.52;;;;;;;;;;5048818;28;20465;-80
2021/03/09 14:38:19;;;;;;;20.20;14.35;;;;;;;;;;5048854;28;20025;-80
2021/03/09 14:40:45;;;;;;;17.27;14.13;;;;;;;;;;5047868;28;20389;-80
2021/03/09 14:43:11;;;;;;;17.52;13.88;;;;;;;;;;5048747;28;20041;-78
2021/03/09 14:45:37;;;;;;;26.38;15.57;;;;;;;;;;5049004;28;20025;-78
2021/03/09 14:48:04;;;;;;;19.02;12.90;;;;;;;;;;5048784;28;20033;-80
2021/03/09 14:50:30;;;;;;;20.38;15.77;;;;;;;;;;5048932;28;20479;-79
2021/03/09 14:52:56;;;;;;;21.00;15.45;;;;;;;;;;5048696;28;20025;-79
2021/03/09 14:55:22;;;;;;;16.77;13.57;;;;;;;;;;5048719;28;20043;-79
2021/03/09 14:57:48;;;;;;;18.27;14.98;;;;;;;;;;5048828;28;20380;-79
2021/03/09 15:00:16;;;;;;;17.60;13.73;;;;;;;;;;5047189;28;20052;-79
2021/03/09 15:02:42;;;;;;;25.85;17.88;;;;;;;;;;5048599;28;20029;-80
2021/03/09 15:05:09;;;;;;;18.02;14.35;;;;;;;;;;5048364;28;20071;-80
2021/03/09 15:07:35;;;;;;;15.88;13.90;;;;;;;;;;5048255;28;20162;-80
2021/03/09 15:10:05;;;;;;;106.70;70.50;;;;;;;;;;5046577;28;20057;-80
2021/03/09 15:12:31;;;;;;;35.35;20.77;;;;;;;;;;5048445;28;20452;-79
2021/03/09 15:14:57;;;;;;;29.10;20.42;;;;;;;;;;5048310;28;20358;-80
2021/03/09 15:17:23;;;;;;;27.27;16.92;;;;;;;;;;5048287;28;20032;-79
2021/03/09 15:19:50;;;;;;;23.35;15.32;;;;;;;;;;5048370;28;20025;-79
2021/03/09 15:22:19;;;;;;;24.60;18.02;;;;;;;;;;5037824;28;20469;-79
2021/03/09 15:24:45;;;;;;;30.90;22.83;;;;;;;;;;5033735;28;20021;-80
2021/03/09 15:27:11;;;;;;;20.58;16.13;;;;;;;;;;5034647;28;20043;-80
2021/03/09 15:29:37;;;;;;;23.58;18.40;;;;;;;;;;5033299;28;20757;-79
2021/03/09 15:32:05;;;;;;;22.90;17.33;;;;;;;;;;5034406;28;20053;-79
2021/03/09 15:34:31;;;;;;;20.40;15.23;;;;;;;;;;5033668;28;20397;-79
2021/03/09 15:36:57;;;;;;;20.40;14.40;;;;;;;;;;5033156;28;20041;-79
2021/03/09 15:39:23;;;;;;;20.77;15.70;;;;;;;;;;5033206;28;20025;-79
2021/03/09 15:41:53;;;;;;;25.55;17.85;;;;;;;;;;5034479;28;20369;-80
2021/03/09 15:44:19;;;;;;;28.38;21.40;;;;;;;;;;5034424;28;20029;-79
2021/03/09 15:46:45;;;;;;;21.73;17.40;;;;;;;;;;5033525;28;20075;-79
2021/03/09 15:49:11;;;;;;;32.53;25.73;;;;;;;;;;5034272;28;20071;-79
2021/03/09 15:51:39;;;;;;;77.40;56.97;;;;;;;;;;5033160;28;20096;-79
2021/03/09 15:54:06;;;;;;;38.03;29.60;;;;;;;;;;5016827;28;20033;-80
2021/03/09 15:56:32;;;;;;;28.65;23.25;;;;;;;;;;5034245;28;20467;-79
2021/03/09 15:59:01;;;;;;;29.15;23.25;;;;;;;;;;5034325;28;20472;-79
2021/03/09 16:01:27;;;;;;;27.60;23.27;;;;;;;;;;5034110;28;20033;-79
2021/03/09 16:03:53;;;;;;;22.90;19.17;;;;;;;;;;5033089;28;20038;-79
2021/03/09 16:06:19;;;;;;;26.00;21.17;;;;;;;;;;5034044;28;20079;-79
2021/03/09 16:08:45;;;;;;;24.23;20.08;;;;;;;;;;5032977;28;20037;-79
2021/03/09 16:11:13;;;;;;;24.38;18.83;;;;;;;;;;5033370;28;20073;-79
2021/03/09 16:13:39;;;;;;;24.35;18.70;;;;;;;;;;5034016;28;20033;-80
2021/03/09 16:16:06;;;;;;;26.98;20.35;;;;;;;;;;5034078;28;20040;-79
2021/03/09 16:18:32;;;;;;;156.43;111.63;;;;;;;;;;5033753;28;20487;-79
2021/03/09 16:20:58;;;;;;;38.95;30.48;;;;;;;;;;5034060;28;20029;-79
2021/03/09 16:23:24;;;;;;;64.15;38.03;;;;;;;;;;5033634;28;20041;-78
2021/03/09 16:25:50;;;;;;;77.68;49.28;;;;;;;;;;5033727;28;20033;-79
2021/03/09 16:28:16;;;;;;;35.58;24.98;;;;;;;;;;5033958;28;20029;-79
2021/03/09 16:30:44;;;;;;;30.20;22.38;;;;;;;;;;5032445;28;20060;-78
2021/03/09 16:33:10;;;;;;;26.38;19.83;;;;;;;;;;5031649;28;20079;-79
2021/03/09 16:35:37;;;;;;;30.23;20.45;;;;;;;;;;5032073;28;20033;-79
2021/03/09 16:38:06;;;;;;;26.73;20.40;;;;;;;;;;5033254;28;20025;-79
2021/03/09 16:40:32;;;;;;;38.20;28.73;;;;;;;;;;5033518;28;20049;-78
2021/03/09 16:42:58;;;;;;;46.78;32.50;;;;;;;;;;5032404;28;20034;-78
2021/03/09 16:45:25;;;;;;;37.58;26.02;;;;;;;;;;5033380;28;20476;-79
2021/03/09 16:47:52;;;;;;;38.83;24.60;;;;;;;;;;5033455;28;20056;-79
2021/03/09 16:50:18;;;;;;;40.65;26.27;;;;;;;;;;5032220;28;20072;-80
2021/03/09 16:52:45;;;;;;;38.28;26.40;;;;;;;;;;5031700;28;20386;-78
2021/03/09 16:55:11;;;;;;;38.47;27.48;;;;;;;;;;5032122;28;20034;-78
2021/03/09 16:57:38;;;;;;;36.58;26.13;;;;;;;;;;5032462;28;20100;-77
2021/03/09 17:00:06;;;;;;;41.15;27.77;;;;;;;;;;5032194;28;20889;-77
2021/03/09 17:02:32;;;;;;;35.92;24.15;;;;;;;;;;5033129;28;20040;-78
2021/03/09 17:04:58;;;;;;;34.13;24.35;;;;;;;;;;5033153;28;20104;-78
2021/03/09 17:07:24;;;;;;;90.25;65.07;;;;;;;;;;5032857;28;20453;-82
2021/03/09 17:09:50;;;;;;;101.43;64.07;;;;;;;;;;5032639;28;20053;-81
2021/03/09 17:12:16;;;;;;;83.35;56.80;;;;;;;;;;5032982;28;20025;-80
2021/03/09 17:14:43;;;;;;;77.20;54.78;;;;;;;;;;5032790;28;20365;-79
2021/03/09 17:17:09;;;;;;;87.78;55.25;;;;;;;;;;5031768;28;20479;-78
2021/03/09 17:19:35;;;;;;;65.85;45.65;;;;;;;;;;5032718;28;20029;-79
2021/03/09 17:22:03;;;;;;;59.95;41.42;;;;;;;;;;5032553;28;20037;-79
2021/03/09 17:24:29;;;;;;;36.95;27.70;;;;;;;;;;5032797;28;20072;-80
2021/03/09 17:26:55;;;;;;;36.45;23.98;;;;;;;;;;5031483;28;20861;-80
2021/03/09 17:29:21;;;;;;;35.95;24.70;;;;;;;;;;5033813;28;20472;-79
2021/03/09 17:31:48;;;;;;;45.40;35.72;;;;;;;;;;5037380;28;20033;-79
2021/03/09 17:34:14;;;;;;;81.07;62.47;;;;;;;;;;5040226;28;20425;-79
2021/03/09 17:36:41;;;;;;;76.88;57.13;;;;;;;;;;5042999;28;20033;-78
2021/03/09 17:39:07;;;;;;;76.80;55.67;;;;;;;;;;5032500;28;20057;-78
2021/03/09 17:41:33;;;;;;;78.57;56.75;;;;;;;;;;5032470;28;20029;-79
2021/03/09 17:44:00;;;;;;;80.90;58.00;;;;;;;;;;5032156;28;20026;-79
2021/03/09 17:46:27;;;;;;;85.00;57.80;;;;;;;;;;5032140;28;20033;-77
2021/03/09 17:48:53;;;;;;;102.63;68.43;;;;;;;;;;5032085;28;20457;-77
2021/03/09 17:51:19;;;;;;;118.53;81.70;;;;;;;;;;5032447;28;20120;-77
2021/03/09 17:53:45;;;;;;;129.27;88.13;;;;;;;;;;5031863;28;20022;-79
2021/03/09 17:56:11;;;;;;;162.75;109.25;;;;;;;;;;5032261;28;20036;-79
2021/03/09 17:58:37;;;;;;;152.40;103.38;;;;;;;;;;5031874;28;20036;-78
2021/03/09 18:01:03;;;;;;;132.02;92.18;;;;;;;;;;5032118;28;20025;-80
2021/03/09 18:03:29;;;;;;;86.68;61.85;;;;;;;;;;5032273;28;20025;-79
2021/03/09 18:05:56;;;;;;;78.38;56.05;;;;;;;;;;5032073;28;20028;-79
2021/03/09 18:08:22;;;;;;;74.43;49.50;;;;;;;;;;5032309;28;20033;-79
2021/03/09 18:10:48;;;;;;;189.18;134.10;;;;;;;;;;5032886;28;20057;-77
2021/03/09 18:13:14;;;;;;;73.32;55.70;;;;;;;;;;5032675;28;20084;-78
2021/03/09 18:15:40;;;;;;;73.10;52.10;;;;;;;;;;5033237;28;20021;-79
2021/03/09 18:18:06;;;;;;;88.97;67.32;;;;;;;;;;5032881;28;20404;-80
2021/03/09 18:20:32;;;;;;;76.60;60.97;;;;;;;;;;5033185;28;20028;-80
2021/03/09 18:22:59;;;;;;;71.07;56.35;;;;;;;;;;5033200;28;20388;-78
2021/03/09 18:25:25;;;;;;;67.15;48.22;;;;;;;;;;5033239;28;20025;-79
2021/03/09 18:27:51;;;;;;;46.38;33.97;;;;;;;;;;5033689;28;20029;-80
2021/03/09 18:30:17;;;;;;;49.30;36.75;;;;;;;;;;5037195;28;20025;-78
2021/03/09 18:32:43;;;;;;;43.80;34.38;;;;;;;;;;5037043;28;20022;-80
2021/03/09 18:35:10;;;;;;;61.67;45.08;;;;;;;;;;5033038;28;20061;-79
2021/03/09 18:37:37;;;;;;;70.88;49.63;;;;;;;;;;5032842;28;20025;-79
2021/03/09 18:40:04;;;;;;;67.97;49.67;;;;;;;;;;5032632;28;20029;-80
2021/03/09 18:42:30;;;;;;;58.25;43.15;;;;;;;;;;5033041;28;20543;-78
2021/03/09 18:44:56;;;;;;;49.13;37.05;;;;;;;;;;5032822;28;20040;-78
2021/03/09 18:47:22;;;;;;;40.30;31.45;;;;;;;;;;5032948;28;20025;-77
2021/03/09 18:49:50;;;;;;;35.47;27.80;;;;;;;;;;5032793;28;20045;-78
2021/03/09 18:52:16;;;;;;;28.88;22.17;;;;;;;;;;5032953;28;20028;-79
2021/03/09 18:54:43;;;;;;;27.90;20.35;;;;;;;;;;5032835;28;20485;-79
2021/03/09 18:57:09;;;;;;;25.55;20.30;;;;;;;;;;5034763;28;20036;-78
2021/03/09 18:59:35;;;;;;;32.75;25.35;;;;;;;;;;5036464;28;20025;-80
2021/03/09 19:02:04;;;;;;;35.28;29.08;;;;;;;;;;5035249;28;20036;-79
2021/03/09 19:04:30;;;;;;;34.97;27.48;;;;;;;;;;5036474;28;20042;-81
2021/03/09 19:06:56;;;;;;;24.15;18.95;;;;;;;;;;5036411;28;20030;-79
2021/03/09 19:09:22;;;;;;;22.52;16.35;;;;;;;;;;5036110;28;20044;-80
2021/03/09 19:11:50;;;;;;;23.80;18.95;;;;;;;;;;5036191;28;20025;-78
2021/03/09 19:14:16;;;;;;;25.38;21.17;;;;;;;;;;5036202;28;20033;-79
2021/03/09 19:16:42;;;;;;;28.58;22.35;;;;;;;;;;5036151;28;20029;-79
2021/03/09 19:19:08;;;;;;;54.85;38.15;;;;;;;;;;5036096;28;20036;-78
2021/03/09 19:21:35;;;;;;;59.03;43.45;;;;;;;;;;5036242;28;20377;-79
2021/03/09 19:24:01;;;;;;;51.67;38.03;;;;;;;;;;5036127;28;20034;-77
2021/03/09 19:26:28;;;;;;;40.00;29.33;;;;;;;;;;5036161;28;20038;-77
2021/03/09 19:28:54;;;;;;;32.38;24.88;;;;;;;;;;5035829;28;20033;-79
2021/03/09 19:31:21;;;;;;;38.90;29.08;;;;;;;;;;5035910;28;20498;-78
2021/03/09 19:33:47;;;;;;;36.75;27.65;;;;;;;;;;5035879;28;20052;-78
2021/03/09 19:36:13;;;;;;;32.08;23.67;;;;;;;;;;5035839;28;20025;-81
2021/03/09 19:38:39;;;;;;;26.92;20.25;;;;;;;;;;5035664;28;20490;-79
2021/03/09 19:41:05;;;;;;;35.92;26.33;;;;;;;;;;5035767;28;20068;-78
2021/03/09 19:43:33;;;;;;;36.33;27.40;;;;;;;;;;5035692;28;20034;-79
2021/03/09 19:46:00;;;;;;;28.30;22.00;;;;;;;;;;5035801;28;20404;-79
2021/03/09 19:48:27;;;;;;;30.52;22.42;;;;;;;;;;5035762;28;20048;-79
2021/03/09 19:50:53;;;;;;;27.33;22.05;;;;;;;;;;5035662;28;20503;-79
2021/03/09 19:53:20;;;;;;;30.23;25.25;;;;;;;;;;5035581;28;20026;-79
2021/03/09 19:55:46;;;;;;;27.60;22.63;;;;;;;;;;5035618;28;20128;-81
2021/03/09 19:58:16;;;;;;;28.10;23.58;;;;;;;;;;5035603;28;20033;-82
2021/03/09 20:00:42;;;;;;;31.08;22.98;;;;;;;;;;5035496;28;20030;-80
2021/03/09 20:03:08;;;;;;;32.80;25.85;;;;;;;;;;5035724;28;20079;-78
2021/03/09 20:05:34;;;;;;;36.03;26.02;;;;;;;;;;5035385;28;20029;-79
2021/03/09 20:08:00;;;;;;;30.08;23.80;;;;;;;;;;5035017;28;20025;-79
2021/03/09 20:10:28;;;;;;;29.75;24.33;;;;;;;;;;5035164;28;20068;-79
2021/03/09 20:12:54;;;;;;;33.03;24.40;;;;;;;;;;5035261;28;20017;-78
2021/03/09 20:15:21;;;;;;;29.55;25.50;;;;;;;;;;5035253;28;20037;-78
2021/03/09 20:17:47;;;;;;;32.08;24.02;;;;;;;;;;5035447;28;20097;-78
2021/03/09 20:20:14;;;;;;;33.83;24.67;;;;;;;;;;5035146;28;20026;-78
2021/03/09 20:22:41;;;;;;;26.33;22.05;;;;;;;;;;5035200;28;20021;-78
2021/03/09 20:25:10;;;;;;;28.48;21.55;;;;;;;;;;5035018;28;20041;-80
2021/03/09 20:27:37;;;;;;;42.63;33.58;;;;;;;;;;5034655;28;20033;-79
2021/03/09 20:30:05;;;;;;;81.65;58.50;;;;;;;;;;5034942;28;20492;-80
2021/03/09 20:32:31;;;;;;;65.90;46.22;;;;;;;;;;5034991;28;20565;-80
2021/03/09 20:34:57;;;;;;;40.17;30.48;;;;;;;;;;5034901;28;20021;-80
2021/03/09 20:37:23;;;;;;;33.17;25.52;;;;;;;;;;5034833;28;20477;-80
2021/03/09 20:39:49;;;;;;;61.85;43.33;;;;;;;;;;5034588;28;20033;-80
2021/03/09 20:42:16;;;;;;;36.03;26.88;;;;;;;;;;5034744;28;20038;-82
2021/03/09 20:44:43;;;;;;;27.42;20.77;;;;;;;;;;5034610;28;20479;-79
2021/03/09 20:47:09;;;;;;;28.35;21.42;;;;;;;;;;5034551;28;20036;-78
2021/03/09 20:49:35;;;;;;;25.58;18.90;;;;;;;;;;5034459;28;20034;-82
2021/03/09 20:52:01;;;;;;;21.52;18.67;;;;;;;;;;5034552;28;20447;-79
2021/03/09 20:54:27;;;;;;;22.00;17.58;;;;;;;;;;5034385;28;20071;-79
2021/03/09 20:56:56;;;;;;;22.17;18.00;;;;;;;;;;5034513;28;20029;-80
2021/03/09 20:59:25;;;;;;;23.50;18.75;;;;;;;;;;5034285;28;20037;-79
2021/03/09 21:01:51;;;;;;;24.30;18.63;;;;;;;;;;5034309;28;20120;-80
2021/03/09 21:04:17;;;;;;;21.63;16.77;;;;;;;;;;5034308;28;20029;-79
2021/03/09 21:06:43;;;;;;;20.02;15.68;;;;;;;;;;5034190;28;20040;-79
2021/03/09 21:09:10;;;;;;;19.45;16.50;;;;;;;;;;5034209;28;20118;-81
2021/03/09 21:11:36;;;;;;;18.25;16.17;;;;;;;;;;5033826;28;20081;-80
2021/03/09 21:14:02;;;;;;;19.05;16.73;;;;;;;;;;5034100;28;20108;-81
2021/03/09 21:16:28;;;;;;;18.75;15.63;;;;;;;;;;5034122;28;20021;-80
2021/03/09 21:18:54;;;;;;;36.97;27.65;;;;;;;;;;5033547;28;20048;-80
2021/03/09 21:21:24;;;;;;;20.77;15.38;;;;;;;;;;5034239;28;20079;-79
2021/03/09 21:23:50;;;;;;;17.85;14.95;;;;;;;;;;5033968;28;20036;-79
2021/03/09 21:26:17;;;;;;;20.33;16.23;;;;;;;;;;5034180;28;20087;-81
2021/03/09 21:28:43;;;;;;;20.55;15.88;;;;;;;;;;5033865;28;20415;-79
2021/03/09 21:31:09;;;;;;;20.50;18.00;;;;;;;;;;5033811;28;20041;-80
2021/03/09 21:33:35;;;;;;;21.73;17.23;;;;;;;;;;5033753;28;20045;-79
2021/03/09 21:36:04;;;;;;;21.02;16.77;;;;;;;;;;5033810;28;20033;-80
2021/03/09 21:38:30;;;;;;;19.80;15.18;;;;;;;;;;5033870;28;20427;-79
2021/03/09 21:40:56;;;;;;;19.63;16.55;;;;;;;;;;5033695;28;20033;-79
2021/03/09 21:43:22;;;;;;;17.70;15.15;;;;;;;;;;5033512;28;20060;-80
2021/03/09 21:45:48;;;;;;;19.17;15.32;;;;;;;;;;5033611;28;20033;-78
2021/03/09 21:48:15;;;;;;;18.15;15.25;;;;;;;;;;5032409;28;20037;-81
2021/03/09 21:50:42;;;;;;;18.33;15.30;;;;;;;;;;5033465;28;20566;-81
2021/03/09 21:53:09;;;;;;;18.42;16.33;;;;;;;;;;5016028;28;20025;-81
2021/03/09 21:55:35;;;;;;;21.13;15.43;;;;;;;;;;5032422;28;20111;-78
2021/03/09 21:58:01;;;;;;;17.45;15.15;;;;;;;;;;5033645;28;20039;-80
2021/03/09 22:00:28;;;;;;;20.90;16.00;;;;;;;;;;5033449;28;20503;-82
2021/03/09 22:02:54;;;;;;;24.05;16.17;;;;;;;;;;5016093;28;20033;-78
2021/03/09 22:05:20;;;;;;;17.75;14.90;;;;;;;;;;5033378;28;20026;-79
2021/03/09 22:07:47;;;;;;;20.25;15.65;;;;;;;;;;5033453;28;20030;-81
2021/03/09 22:10:13;;;;;;;19.75;15.85;;;;;;;;;;5033035;28;20085;-79
2021/03/09 22:12:39;;;;;;;18.75;15.70;;;;;;;;;;5033218;28;20021;-78
2021/03/09 22:15:06;;;;;;;17.65;14.98;;;;;;;;;;5033251;28;20033;-81
2021/03/09 22:17:32;;;;;;;17.45;13.77;;;;;;;;;;5033289;28;20088;-79
2021/03/09 22:19:58;;;;;;;16.50;14.32;;;;;;;;;;5033350;28;20469;-81
2021/03/09 22:22:24;;;;;;;18.73;15.48;;;;;;;;;;5033218;28;20033;-79
2021/03/09 22:24:50;;;;;;;19.98;14.50;;;;;;;;;;5033217;28;20029;-78
2021/03/09 22:27:16;;;;;;;18.85;15.30;;;;;;;;;;5033174;28;20114;-81
2021/03/09 22:29:43;;;;;;;18.77;14.13;;;;;;;;;;5033224;28;20021;-79
2021/03/09 22:32:10;;;;;;;19.70;15.13;;;;;;;;;;5035036;28;20113;-81
2021/03/09 22:34:36;;;;;;;21.60;14.30;;;;;;;;;;5037122;28;20036;-80
2021/03/09 22:37:02;;;;;;;18.30;14.25;;;;;;;;;;5037146;28;20030;-81
2021/03/09 22:39:28;;;;;;;16.95;14.25;;;;;;;;;;5037102;28;20034;-80
2021/03/09 22:41:54;;;;;;;17.23;13.48;;;;;;;;;;5037059;28;20064;-80
2021/03/09 22:44:20;;;;;;;46.88;32.13;;;;;;;;;;5036912;28;20377;-79
2021/03/09 22:46:46;;;;;;;24.02;18.35;;;;;;;;;;5035804;28;20064;-80
2021/03/09 22:49:13;;;;;;;18.17;14.25;;;;;;;;;;5036945;28;20044;-81
2021/03/09 22:51:39;;;;;;;20.95;15.52;;;;;;;;;;5036955;28;20041;-79
2021/03/09 22:54:05;;;;;;;18.00;13.93;;;;;;;;;;5036764;28;20033;-78
2021/03/09 22:56:31;;;;;;;18.65;14.52;;;;;;;;;;5036751;28;20105;-79
2021/03/09 22:58:58;;;;;;;17.60;14.00;;;;;;;;;;5036807;28;20029;-78
2021/03/09 23:01:25;;;;;;;16.90;14.60;;;;;;;;;;5036614;28;20026;-78
2021/03/09 23:03:51;;;;;;;18.38;15.52;;;;;;;;;;5035372;28;20488;-82
2021/03/09 23:06:17;;;;;;;17.77;14.32;;;;;;;;;;5036600;28;20029;-82
2021/03/09 23:08:43;;;;;;;18.63;13.98;;;;;;;;;;5036618;28;20067;-78
2021/03/09 23:11:10;;;;;;;18.42;14.65;;;;;;;;;;5036189;28;20045;-79
2021/03/09 23:13:36;;;;;;;19.55;14.27;;;;;;;;;;5036460;28;20036;-80
2021/03/09 23:16:02;;;;;;;15.93;13.60;;;;;;;;;;5036410;28;20034;-78
2021/03/09 23:18:28;;;;;;;16.75;12.88;;;;;;;;;;5036436;28;20037;-79
2021/03/09 23:20:56;;;;;;;17.10;14.00;;;;;;;;;;5036482;28;20029;-79
2021/03/09 23:23:22;;;;;;;18.90;13.73;;;;;;;;;;5036361;28;20429;-79
2021/03/09 23:25:48;;;;;;;16.70;13.50;;;;;;;;;;5036395;28;20032;-81
2021/03/09 23:28:14;;;;;;;15.65;13.52;;;;;;;;;;5036168;28;20431;-80
2021/03/09 23:30:41;;;;;;;15.55;13.77;;;;;;;;;;5036050;28;20037;-80
2021/03/09 23:33:07;;;;;;;18.80;13.52;;;;;;;;;;5036197;28;20378;-79
2021/03/09 23:35:33;;;;;;;16.08;14.30;;;;;;;;;;5036074;28;20396;-82
2021/03/09 23:38:00;;;;;;;16.30;13.60;;;;;;;;;;5035985;28;20026;-78
2021/03/09 23:40:27;;;;;;;16.83;13.43;;;;;;;;;;5035984;28;20026;-79
2021/03/09 23:42:54;;;;;;;15.27;13.45;;;;;;;;;;5035465;28;20036;-82
2021/03/09 23:45:20;;;;;;;15.20;12.18;;;;;;;;;;5035577;28;20396;-81
2021/03/09 23:47:46;;;;;;;16.20;12.95;;;;;;;;;;5035806;28;20033;-80
2021/03/09 23:50:14;;;;;;;14.20;11.77;;;;;;;;;;5035587;28;20021;-80
2021/03/09 23:52:40;;;;;;;17.25;12.70;;;;;;;;;;5035859;28;20029;-81
2021/03/09 23:55:07;;;;;;;13.80;12.35;;;;;;;;;;5035731;28;20384;-79
2021/03/09 23:57:33;;;;;;;14.00;12.23;;;;;;;;;;5035379;28;20057;-81
2021/03/09 23:59:59;;;;;;;14.73;12.85;;;;;;;;;;5035722;28;20029;-82
